sensor_id;sensor_type;location;lat;lon;timestamp;pressure;altitude;pressure_sealevel;temperature;humidity
63115;BME280;49208;50.874;6.466;2023-05-17T06:01:51;101449.34;;;8.57;100.00
63115;BME280;49208;50.874;6.466;2023-05-17T06:04:16;101448.38;;;8.64;100.00
63115;BME280;49208;50.874;6.466;2023-05-17T06:06:42;101449.16;;;8.73;100.00
63115;BME280;49208;50.874;6.466;2023-05-17T06:09:07;101452.63;;;8.79;100.00
63115;BME280;49208;50.874;6.466;2023-05-17T06:11:36;101451.59;;;8.91;100.00
63115;BME280;49208;50.874;6.466;2023-05-17T06:14:02;101462.88;;;9.08;100.00
63115;BME280;49208;50.874;6.466;2023-05-17T06:16:27;101459.97;;;9.27;100.00
63115;BME280;49208;50.874;6.466;2023-05-17T06:18:52;101463.34;;;9.40;100.00
63115;BME280;49208;50.874;6.466;2023-05-17T06:21:18;101462.31;;;9.50;100.00
63115;BME280;49208;50.874;6.466;2023-05-17T06:23:43;101464.81;;;9.61;100.00
63115;BME280;49208;50.874;6.466;2023-05-17T06:26:08;101476.06;;;9.77;100.00
63115;BME280;49208;50.874;6.466;2023-05-17T06:28:36;101479.41;;;9.89;100.00
63115;BME280;49208;50.874;6.466;2023-05-17T06:31:01;101477.50;;;9.98;100.00
63115;BME280;49208;50.874;6.466;2023-05-17T06:33:27;101485.38;;;10.04;100.00
63115;BME280;49208;50.874;6.466;2023-05-17T06:35:54;101478.22;;;10.09;100.00
63115;BME280;49208;50.874;6.466;2023-05-17T06:38:19;101479.00;;;10.16;100.00
63115;BME280;49208;50.874;6.466;2023-05-17T06:40:44;101473.59;;;10.20;100.00
63115;BME280;49208;50.874;6.466;2023-05-17T06:43:10;101491.13;;;10.34;100.00
63115;BME280;49208;50.874;6.466;2023-05-17T06:45:35;101486.47;;;10.45;100.00
63115;BME280;49208;50.874;6.466;2023-05-17T06:48:00;101487.34;;;10.45;99.26
63115;BME280;49208;50.874;6.466;2023-05-17T06:50:26;101486.34;;;10.52;99.90
63115;BME280;49208;50.874;6.466;2023-05-17T06:52:52;101481.03;;;10.52;98.89
63115;BME280;49208;50.874;6.466;2023-05-17T06:55:18;101482.84;;;10.50;97.97
63115;BME280;49208;50.874;6.466;2023-05-17T06:57:43;101489.91;;;10.51;98.24
63115;BME280;49208;50.874;6.466;2023-05-17T07:00:09;101489.00;;;10.52;97.39
63115;BME280;49208;50.874;6.466;2023-05-17T07:02:35;101492.63;;;10.50;96.76
63115;BME280;49208;50.874;6.466;2023-05-17T07:05:02;101494.38;;;10.51;95.62
63115;BME280;49208;50.874;6.466;2023-05-17T07:07:27;101494.28;;;10.54;95.97
63115;BME280;49208;50.874;6.466;2023-05-17T07:09:52;101494.13;;;10.63;96.91
63115;BME280;49208;50.874;6.466;2023-05-17T07:12:18;101492.25;;;10.68;96.39
63115;BME280;49208;50.874;6.466;2023-05-17T07:14:43;101490.38;;;10.75;96.36
63115;BME280;49208;50.874;6.466;2023-05-17T07:17:10;101491.88;;;10.88;97.02
63115;BME280;49208;50.874;6.466;2023-05-17T07:19:35;101504.00;;;11.02;96.62
63115;BME280;49208;50.874;6.466;2023-05-17T07:22:01;101490.38;;;11.17;95.65
63115;BME280;49208;50.874;6.466;2023-05-17T07:24:26;101502.47;;;11.33;92.75
63115;BME280;49208;50.874;6.466;2023-05-17T07:26:51;101502.03;;;11.53;91.48
63115;BME280;49208;50.874;6.466;2023-05-17T07:29:17;101498.72;;;11.81;90.82
63115;BME280;49208;50.874;6.466;2023-05-17T07:31:42;101501.47;;;12.16;87.61
63115;BME280;49208;50.874;6.466;2023-05-17T07:34:07;101510.38;;;12.16;83.60
63115;BME280;49208;50.874;6.466;2023-05-17T07:36:33;101502.59;;;12.41;85.82
63115;BME280;49208;50.874;6.466;2023-05-17T07:38:58;101497.94;;;12.49;82.69
63115;BME280;49208;50.874;6.466;2023-05-17T07:41:24;101502.44;;;12.47;79.15
63115;BME280;49208;50.874;6.466;2023-05-17T07:43:50;101505.88;;;12.51;79.15
63115;BME280;49208;50.874;6.466;2023-05-17T07:46:17;101511.53;;;12.40;77.48
63115;BME280;49208;50.874;6.466;2023-05-17T07:48:43;101504.63;;;12.31;77.77
63115;BME280;49208;50.874;6.466;2023-05-17T07:51:08;101518.00;;;11.96;76.37
63115;BME280;49208;50.874;6.466;2023-05-17T07:53:33;101520.59;;;11.97;78.26
63115;BME280;49208;50.874;6.466;2023-05-17T07:55:59;101521.50;;;11.98;79.52
63115;BME280;49208;50.874;6.466;2023-05-17T07:58:24;101526.84;;;11.98;80.33
63115;BME280;49208;50.874;6.466;2023-05-17T08:00:49;101526.03;;;11.94;81.59
63115;BME280;49208;50.874;6.466;2023-05-17T08:03:15;101525.25;;;11.89;82.10
63115;BME280;49208;50.874;6.466;2023-05-17T08:05:40;101523.47;;;11.88;81.19
63115;BME280;49208;50.874;6.466;2023-05-17T08:08:06;101517.22;;;11.89;82.98
63115;BME280;49208;50.874;6.466;2023-05-17T08:10:32;101523.38;;;11.92;83.37
63115;BME280;49208;50.874;6.466;2023-05-17T08:13:00;101524.25;;;11.93;81.41
63115;BME280;49208;50.874;6.466;2023-05-17T08:15:25;101530.28;;;12.01;81.05
63115;BME280;49208;50.874;6.466;2023-05-17T08:17:51;101532.59;;;12.17;82.24
63115;BME280;49208;50.874;6.466;2023-05-17T08:20:16;101525.81;;;12.39;82.28
63115;BME280;49208;50.874;6.466;2023-05-17T08:22:41;101530.97;;;12.78;80.16
63115;BME280;49208;50.874;6.466;2023-05-17T08:25:07;101531.41;;;12.63;72.87
63115;BME280;49208;50.874;6.466;2023-05-17T08:27:33;101526.94;;;12.96;70.84
63115;BME280;49208;50.874;6.466;2023-05-17T08:29:58;101526.25;;;13.80;73.07
63115;BME280;49208;50.874;6.466;2023-05-17T08:32:24;101525.50;;;14.57;72.33
63115;BME280;49208;50.874;6.466;2023-05-17T08:34:50;101532.44;;;14.64;64.98
63115;BME280;49208;50.874;6.466;2023-05-17T08:37:17;101527.63;;;14.47;63.04
63115;BME280;49208;50.874;6.466;2023-05-17T08:39:42;101533.59;;;14.55;63.46
63115;BME280;49208;50.874;6.466;2023-05-17T08:42:07;101523.28;;;14.94;63.20
63115;BME280;49208;50.874;6.466;2023-05-17T08:44:33;101522.31;;;15.21;58.53
63115;BME280;49208;50.874;6.466;2023-05-17T08:46:58;101529.53;;;15.19;53.56
63115;BME280;49208;50.874;6.466;2023-05-17T08:49:27;101518.25;;;15.34;56.63
63115;BME280;49208;50.874;6.466;2023-05-17T08:51:58;101525.53;;;15.78;58.43
63115;BME280;49208;50.874;6.466;2023-05-17T08:54:24;101531.00;;;15.51;53.47
63115;BME280;49208;50.874;6.466;2023-05-17T08:56:52;101534.28;;;14.87;53.78
63115;BME280;49208;50.874;6.466;2023-05-17T08:59:18;101535.75;;;14.44;53.81
63115;BME280;49208;50.874;6.466;2023-05-17T09:01:46;101541.00;;;14.20;55.31
63115;BME280;49208;50.874;6.466;2023-05-17T09:04:14;101544.44;;;13.69;55.48
63115;BME280;49208;50.874;6.466;2023-05-17T09:06:40;101542.84;;;13.91;56.33
63115;BME280;49208;50.874;6.466;2023-05-17T09:09:08;101530.78;;;14.05;58.85
63115;BME280;49208;50.874;6.466;2023-05-17T09:11:33;101535.56;;;13.97;55.36
63115;BME280;49208;50.874;6.466;2023-05-17T09:14:00;101539.22;;;14.21;56.55
63115;BME280;49208;50.874;6.466;2023-05-17T09:16:30;101542.53;;;14.27;55.53
63115;BME280;49208;50.874;6.466;2023-05-17T09:18:58;101538.22;;;14.23;54.27
63115;BME280;49208;50.874;6.466;2023-05-17T09:21:25;101538.25;;;13.67;53.52
63115;BME280;49208;50.874;6.466;2023-05-17T09:23:51;101538.84;;;13.77;56.88
63115;BME280;49208;50.874;6.466;2023-05-17T09:26:17;101542.41;;;13.47;55.00
63115;BME280;49208;50.874;6.466;2023-05-17T09:28:43;101537.66;;;13.57;56.22
63115;BME280;49208;50.874;6.466;2023-05-17T09:31:09;101539.13;;;13.67;55.35
63115;BME280;49208;50.874;6.466;2023-05-17T09:33:49;101541.97;;;13.61;53.24
63115;BME280;49208;50.874;6.466;2023-05-17T09:36:21;101540.28;;;13.27;53.67
63115;BME280;49208;50.874;6.466;2023-05-17T09:39:00;101539.09;;;13.39;53.84
63115;BME280;49208;50.874;6.466;2023-05-17T09:41:39;101538.44;;;13.61;54.38
63115;BME280;49208;50.874;6.466;2023-05-17T09:44:08;101538.59;;;14.39;58.08
63115;BME280;49208;50.874;6.466;2023-05-17T09:46:34;101533.25;;;15.14;56.08
63115;BME280;49208;50.874;6.466;2023-05-17T09:49:03;101533.44;;;15.57;52.44
63115;BME280;49208;50.874;6.466;2023-05-17T09:51:35;101527.31;;;15.77;50.90
63115;BME280;49208;50.874;6.466;2023-05-17T09:54:01;101527.06;;;15.60;48.41
63115;BME280;49208;50.874;6.466;2023-05-17T09:56:28;101532.81;;;15.27;47.22
63115;BME280;49208;50.874;6.466;2023-05-17T09:58:54;101539.78;;;14.84;47.08
63115;BME280;49208;50.874;6.466;2023-05-17T10:01:20;101534.44;;;15.07;51.84
63115;BME280;49208;50.874;6.466;2023-05-17T10:03:46;101532.72;;;15.30;49.72
63115;BME280;49208;50.874;6.466;2023-05-17T10:06:15;101527.97;;;14.88;50.74
63115;BME280;49208;50.874;6.466;2023-05-17T10:08:45;101527.66;;;15.21;49.80
63115;BME280;49208;50.874;6.466;2023-05-17T10:11:14;101525.59;;;15.52;47.52
63115;BME280;49208;50.874;6.466;2023-05-17T10:13:43;101525.75;;;16.15;46.25
63115;BME280;49208;50.874;6.466;2023-05-17T10:16:11;101524.38;;;16.27;46.54
63115;BME280;49208;50.874;6.466;2023-05-17T10:18:38;101516.34;;;16.48;45.38
63115;BME280;49208;50.874;6.466;2023-05-17T10:21:09;101515.81;;;16.81;47.20
63115;BME280;49208;50.874;6.466;2023-05-17T10:23:36;101519.97;;;17.08;47.08
63115;BME280;49208;50.874;6.466;2023-05-17T10:26:03;101517.31;;;17.46;46.25
63115;BME280;49208;50.874;6.466;2023-05-17T10:28:29;101507.91;;;17.74;46.30
63115;BME280;49208;50.874;6.466;2023-05-17T10:30:56;101518.03;;;17.50;44.78
63115;BME280;49208;50.874;6.466;2023-05-17T10:33:23;101506.22;;;17.71;43.73
63115;BME280;49208;50.874;6.466;2023-05-17T10:35:50;101506.91;;;18.13;45.25
63115;BME280;49208;50.874;6.466;2023-05-17T10:38:17;101504.03;;;17.98;44.27
63115;BME280;49208;50.874;6.466;2023-05-17T10:40:43;101503.50;;;17.35;42.96
63115;BME280;49208;50.874;6.466;2023-05-17T10:43:10;101499.63;;;17.41;44.65
63115;BME280;49208;50.874;6.466;2023-05-17T10:45:36;101503.63;;;17.51;47.06
63115;BME280;49208;50.874;6.466;2023-05-17T10:48:05;101496.56;;;17.67;44.41
63115;BME280;49208;50.874;6.466;2023-05-17T10:50:31;101499.50;;;17.25;41.85
63115;BME280;49208;50.874;6.466;2023-05-17T10:52:57;101495.81;;;17.64;45.57
63115;BME280;49208;50.874;6.466;2023-05-17T10:55:27;101498.91;;;17.37;43.35
63115;BME280;49208;50.874;6.466;2023-05-17T10:58:13;101488.78;;;17.42;43.78
63115;BME280;49208;50.874;6.466;2023-05-17T11:00:44;101494.25;;;17.41;45.56
63115;BME280;49208;50.874;6.466;2023-05-17T11:03:17;101495.84;;;16.86;45.15
63115;BME280;49208;50.874;6.466;2023-05-17T11:08:27;101492.53;;;16.59;47.43
63115;BME280;49208;50.874;6.466;2023-05-17T11:11:17;101489.28;;;16.93;46.97
63115;BME280;49208;50.874;6.466;2023-05-17T11:13:51;101488.38;;;16.93;45.75
63115;BME280;49208;50.874;6.466;2023-05-17T11:16:20;101488.78;;;16.43;42.68
63115;BME280;49208;50.874;6.466;2023-05-17T11:18:50;101477.00;;;16.25;44.19
63115;BME280;49208;50.874;6.466;2023-05-17T11:21:17;101475.13;;;16.06;44.07
63115;BME280;49208;50.874;6.466;2023-05-17T11:23:46;101472.53;;;16.25;45.54
63115;BME280;49208;50.874;6.466;2023-05-17T11:26:18;101474.06;;;16.72;44.98
63115;BME280;49208;50.874;6.466;2023-05-17T11:28:45;101474.59;;;16.60;42.63
63115;BME280;49208;50.874;6.466;2023-05-17T11:31:11;101472.31;;;16.71;43.02
63115;BME280;49208;50.874;6.466;2023-05-17T11:33:43;101479.38;;;16.73;44.68
63115;BME280;49208;50.874;6.466;2023-05-17T11:36:19;101481.59;;;17.24;46.99
63115;BME280;49208;50.874;6.466;2023-05-17T11:38:49;101477.00;;;17.45;44.61
63115;BME280;49208;50.874;6.466;2023-05-17T11:41:32;101472.88;;;17.74;43.62
63115;BME280;49208;50.874;6.466;2023-05-17T11:44:01;101475.75;;;17.71;42.26
63115;BME280;49208;50.874;6.466;2023-05-17T11:46:26;101476.72;;;17.89;40.99
63115;BME280;49208;50.874;6.466;2023-05-17T11:48:52;101480.78;;;17.60;40.48
63115;BME280;49208;50.874;6.466;2023-05-17T11:51:18;101480.34;;;17.88;42.19
63115;BME280;49208;50.874;6.466;2023-05-17T11:53:44;101476.97;;;18.19;43.00
63115;BME280;49208;50.874;6.466;2023-05-17T11:56:11;101477.94;;;17.63;41.79
63115;BME280;49208;50.874;6.466;2023-05-17T11:58:37;101474.16;;;18.03;41.82
63115;BME280;49208;50.874;6.466;2023-05-17T12:01:03;101474.72;;;17.92;43.40
63115;BME280;49208;50.874;6.466;2023-05-17T12:03:31;101473.34;;;17.84;41.99
63115;BME280;49208;50.874;6.466;2023-05-17T12:06:07;101481.78;;;17.76;42.41
63115;BME280;49208;50.874;6.466;2023-05-17T12:08:35;101478.38;;;17.53;40.11
63115;BME280;49208;50.874;6.466;2023-05-17T12:11:02;101472.50;;;17.45;41.00
63115;BME280;49208;50.874;6.466;2023-05-17T12:13:29;101469.31;;;17.37;42.35
63115;BME280;49208;50.874;6.466;2023-05-17T12:16:06;101472.06;;;17.54;41.66
63115;BME280;49208;50.874;6.466;2023-05-17T12:18:41;101466.88;;;17.88;42.08
63115;BME280;49208;50.874;6.466;2023-05-17T12:21:09;101463.88;;;18.11;43.00
63115;BME280;49208;50.874;6.466;2023-05-17T12:23:38;101471.44;;;18.22;40.18
63115;BME280;49208;50.874;6.466;2023-05-17T12:26:07;101463.03;;;18.28;40.15
63115;BME280;49208;50.874;6.466;2023-05-17T12:28:34;101464.97;;;17.90;40.84
63115;BME280;49208;50.874;6.466;2023-05-17T12:31:01;101458.81;;;17.50;40.73
63115;BME280;49208;50.874;6.466;2023-05-17T12:33:34;101454.81;;;17.58;42.45
63115;BME280;49208;50.874;6.466;2023-05-17T12:36:01;101460.50;;;16.95;42.04
63115;BME280;49208;50.874;6.466;2023-05-17T12:38:28;101455.72;;;16.82;44.08
63115;BME280;49208;50.874;6.466;2023-05-17T12:40:57;101454.22;;;17.14;44.03
63115;BME280;49208;50.874;6.466;2023-05-17T12:43:23;101459.19;;;17.42;41.03
63115;BME280;49208;50.874;6.466;2023-05-17T12:45:49;101451.63;;;17.31;40.60
63115;BME280;49208;50.874;6.466;2023-05-17T12:48:16;101455.41;;;17.27;42.17
63115;BME280;49208;50.874;6.466;2023-05-17T12:50:42;101449.94;;;17.10;41.00
63115;BME280;49208;50.874;6.466;2023-05-17T12:53:10;101447.91;;;17.34;41.50
63115;BME280;49208;50.874;6.466;2023-05-17T12:55:36;101448.69;;;17.55;41.43
63115;BME280;49208;50.874;6.466;2023-05-17T12:58:02;101458.22;;;17.62;41.54
63115;BME280;49208;50.874;6.466;2023-05-17T13:00:29;101460.75;;;17.84;41.15
63115;BME280;49208;50.874;6.466;2023-05-17T13:02:54;101464.97;;;17.90;41.27
63115;BME280;49208;50.874;6.466;2023-05-17T13:05:20;101458.72;;;17.89;41.91
63115;BME280;49208;50.874;6.466;2023-05-17T13:07:46;101457.56;;;18.12;39.45
63115;BME280;49208;50.874;6.466;2023-05-17T13:10:23;101459.69;;;18.23;40.08
63115;BME280;49208;50.874;6.466;2023-05-17T13:12:57;101465.88;;;18.25;38.54
63115;BME280;49208;50.874;6.466;2023-05-17T13:15:45;101463.53;;;17.83;40.49
63115;BME280;49208;50.874;6.466;2023-05-17T13:18:14;101462.72;;;17.62;41.38
63115;BME280;49208;50.874;6.466;2023-05-17T13:20:41;101468.69;;;17.68;41.20
63115;BME280;49208;50.874;6.466;2023-05-17T13:23:07;101463.88;;;17.94;41.80
63115;BME280;49208;50.874;6.466;2023-05-17T13:25:32;101458.34;;;18.14;40.45
63115;BME280;49208;50.874;6.466;2023-05-17T13:27:57;101462.88;;;18.14;39.17
63115;BME280;49208;50.874;6.466;2023-05-17T13:30:23;101456.25;;;17.66;37.33
63115;BME280;49208;50.874;6.466;2023-05-17T13:32:49;101458.13;;;17.64;38.15
63115;BME280;49208;50.874;6.466;2023-05-17T13:35:14;101455.72;;;17.76;39.42
63115;BME280;49208;50.874;6.466;2023-05-17T13:37:40;101459.81;;;17.85;39.14
63115;BME280;49208;50.874;6.466;2023-05-17T13:40:06;101455.00;;;17.73;39.04
63115;BME280;49208;50.874;6.466;2023-05-17T13:42:32;101455.03;;;16.76;40.22
63115;BME280;49208;50.874;6.466;2023-05-17T13:44:57;101454.72;;;16.84;40.62
63115;BME280;49208;50.874;6.466;2023-05-17T13:47:25;101454.88;;;16.81;39.59
63115;BME280;49208;50.874;6.466;2023-05-17T13:49:54;101428.84;;;16.61;40.03
63115;BME280;49208;50.874;6.466;2023-05-17T13:52:19;101450.03;;;16.28;40.63
63115;BME280;49208;50.874;6.466;2023-05-17T13:54:45;101446.59;;;16.45;41.07
63115;BME280;49208;50.874;6.466;2023-05-17T13:57:10;101439.00;;;16.34;40.65
63115;BME280;49208;50.874;6.466;2023-05-17T13:59:35;101440.34;;;16.44;40.61
63115;BME280;49208;50.874;6.466;2023-05-17T14:02:01;101441.94;;;16.07;40.41
63115;BME280;49208;50.874;6.466;2023-05-17T14:04:26;101428.66;;;16.04;42.65
63115;BME280;49208;50.874;6.466;2023-05-17T14:06:51;101442.81;;;16.28;41.58
63115;BME280;49208;50.874;6.466;2023-05-17T14:09:17;101439.06;;;16.32;40.67
63115;BME280;49208;50.874;6.466;2023-05-17T14:11:43;101428.31;;;16.53;40.89
63115;BME280;49208;50.874;6.466;2023-05-17T14:14:08;101428.69;;;16.64;40.37
63115;BME280;49208;50.874;6.466;2023-05-17T14:16:34;101437.78;;;16.82;40.26
63115;BME280;49208;50.874;6.466;2023-05-17T14:18:59;101413.59;;;17.01;41.39
63115;BME280;49208;50.874;6.466;2023-05-17T14:21:25;101428.41;;;16.91;40.64
63115;BME280;49208;50.874;6.466;2023-05-17T14:23:50;101421.50;;;16.85;43.05
63115;BME280;49208;50.874;6.466;2023-05-17T14:26:16;101424.09;;;16.87;42.04
63115;BME280;49208;50.874;6.466;2023-05-17T14:28:41;101418.09;;;16.61;40.77
63115;BME280;49208;50.874;6.466;2023-05-17T14:31:08;101418.25;;;16.17;42.10
63115;BME280;49208;50.874;6.466;2023-05-17T14:33:33;101427.97;;;15.99;42.45
63115;BME280;49208;50.874;6.466;2023-05-17T14:35:59;101425.16;;;16.02;44.23
63115;BME280;49208;50.874;6.466;2023-05-17T14:38:25;101420.50;;;16.06;42.22
63115;BME280;49208;50.874;6.466;2023-05-17T14:40:50;101409.72;;;16.07;44.18
63115;BME280;49208;50.874;6.466;2023-05-17T14:43:15;101415.81;;;16.11;42.90
63115;BME280;49208;50.874;6.466;2023-05-17T14:45:41;101407.50;;;15.96;42.70
63115;BME280;49208;50.874;6.466;2023-05-17T14:48:06;101409.47;;;15.91;42.96
63115;BME280;49208;50.874;6.466;2023-05-17T14:50:33;101419.66;;;15.39;42.07
63115;BME280;49208;50.874;6.466;2023-05-17T14:52:58;101410.66;;;15.18;43.54
63115;BME280;49208;50.874;6.466;2023-05-17T14:55:24;101413.28;;;15.20;42.65
63115;BME280;49208;50.874;6.466;2023-05-17T14:57:51;101414.06;;;15.23;42.47
63115;BME280;49208;50.874;6.466;2023-05-17T15:00:18;101419.88;;;15.11;44.43
63115;BME280;49208;50.874;6.466;2023-05-17T15:02:44;101419.41;;;15.00;44.02
63115;BME280;49208;50.874;6.466;2023-05-17T15:05:10;101420.81;;;14.86;44.75
63115;BME280;49208;50.874;6.466;2023-05-17T15:07:36;101424.13;;;14.93;44.63
63115;BME280;49208;50.874;6.466;2023-05-17T15:10:04;101422.63;;;15.09;44.89
63115;BME280;49208;50.874;6.466;2023-05-17T15:12:30;101424.16;;;15.39;44.53
63115;BME280;49208;50.874;6.466;2023-05-17T15:14:56;101422.56;;;15.56;42.85
63115;BME280;49208;50.874;6.466;2023-05-17T15:17:22;101420.22;;;15.47;42.53
63115;BME280;49208;50.874;6.466;2023-05-17T15:19:48;101428.88;;;15.78;43.24
63115;BME280;49208;50.874;6.466;2023-05-17T15:22:13;101421.03;;;15.93;43.98
63115;BME280;49208;50.874;6.466;2023-05-17T15:24:38;101425.34;;;15.98;41.33
63115;BME280;49208;50.874;6.466;2023-05-17T15:27:05;101417.72;;;15.87;41.33
63115;BME280;49208;50.874;6.466;2023-05-17T15:29:31;101415.50;;;15.98;41.34
63115;BME280;49208;50.874;6.466;2023-05-17T15:31:57;101411.50;;;15.86;41.44
63115;BME280;49208;50.874;6.466;2023-05-17T15:34:25;101416.88;;;15.86;41.43
63115;BME280;49208;50.874;6.466;2023-05-17T15:36:54;101413.22;;;15.87;40.58
63115;BME280;49208;50.874;6.466;2023-05-17T15:39:20;101405.72;;;15.75;40.78
63115;BME280;49208;50.874;6.466;2023-05-17T15:41:45;101409.31;;;15.74;41.07
63115;BME280;49208;50.874;6.466;2023-05-17T15:44:11;101408.88;;;15.63;40.18
63115;BME280;49208;50.874;6.466;2023-05-17T15:46:37;101414.03;;;15.45;40.84
63115;BME280;49208;50.874;6.466;2023-05-17T15:49:02;101409.50;;;15.47;41.65
63115;BME280;49208;50.874;6.466;2023-05-17T15:51:27;101417.97;;;15.36;41.93
63115;BME280;49208;50.874;6.466;2023-05-17T15:53:54;101419.34;;;15.47;41.37
63115;BME280;49208;50.874;6.466;2023-05-17T15:56:19;101414.81;;;15.49;42.01
63115;BME280;49208;50.874;6.466;2023-05-17T15:58:46;101424.25;;;15.35;41.58
63115;BME280;49208;50.874;6.466;2023-05-17T16:01:12;101419.94;;;15.31;42.00
63115;BME280;49208;50.874;6.466;2023-05-17T16:03:38;101411.31;;;15.47;42.04
63115;BME280;49208;50.874;6.466;2023-05-17T16:06:03;101416.22;;;15.35;41.48
63115;BME280;49208;50.874;6.466;2023-05-17T16:08:29;101415.25;;;15.38;43.41
63115;BME280;49208;50.874;6.466;2023-05-17T16:10:55;101416.59;;;15.26;42.35
63115;BME280;49208;50.874;6.466;2023-05-17T16:13:20;101419.31;;;15.25;41.57
63115;BME280;49208;50.874;6.466;2023-05-17T16:15:46;101411.75;;;15.12;42.69
63115;BME280;49208;50.874;6.466;2023-05-17T16:18:12;101416.88;;;14.97;42.93
63115;BME280;49208;50.874;6.466;2023-05-17T16:20:39;101418.38;;;15.04;43.22
63115;BME280;49208;50.874;6.466;2023-05-17T16:23:05;101416.50;;;15.06;42.35
63115;BME280;49208;50.874;6.466;2023-05-17T16:25:31;101410.91;;;15.12;42.30
63115;BME280;49208;50.874;6.466;2023-05-17T16:27:57;101416.69;;;15.01;42.11
63115;BME280;49208;50.874;6.466;2023-05-17T16:30:22;101413.00;;;15.04;44.15
63115;BME280;49208;50.874;6.466;2023-05-17T16:32:47;101421.47;;;14.93;43.08
63115;BME280;49208;50.874;6.466;2023-05-17T16:35:14;101410.56;;;14.98;43.54
63115;BME280;49208;50.874;6.466;2023-05-17T16:37:41;101422.31;;;14.93;43.93
63115;BME280;49208;50.874;6.466;2023-05-17T16:40:08;101422.69;;;14.84;43.83
63115;BME280;49208;50.874;6.466;2023-05-17T16:42:34;101430.31;;;14.71;43.93
63115;BME280;49208;50.874;6.466;2023-05-17T16:45:00;101426.81;;;14.69;44.02
63115;BME280;49208;50.874;6.466;2023-05-17T16:47:25;101426.59;;;14.75;45.20
63115;BME280;49208;50.874;6.466;2023-05-17T16:49:52;101433.81;;;14.73;44.75
63115;BME280;49208;50.874;6.466;2023-05-17T16:52:18;101428.97;;;14.83;44.88
63115;BME280;49208;50.874;6.466;2023-05-17T16:54:44;101431.66;;;14.83;45.14
63115;BME280;49208;50.874;6.466;2023-05-17T16:57:10;101437.09;;;14.82;45.19
63115;BME280;49208;50.874;6.466;2023-05-17T16:59:35;101432.78;;;14.78;45.84
63115;BME280;49208;50.874;6.466;2023-05-17T17:02:01;101440.97;;;14.73;45.28
63115;BME280;49208;50.874;6.466;2023-05-17T17:04:27;101435.69;;;14.71;45.38
63115;BME280;49208;50.874;6.466;2023-05-17T17:06:52;101437.59;;;14.68;45.34
63115;BME280;49208;50.874;6.466;2023-05-17T17:09:17;101435.00;;;14.65;44.43
63115;BME280;49208;50.874;6.466;2023-05-17T17:11:44;101435.31;;;14.57;44.42
63115;BME280;49208;50.874;6.466;2023-05-17T17:14:10;101431.81;;;14.53;44.71
63115;BME280;49208;50.874;6.466;2023-05-17T17:16:35;101433.84;;;14.47;43.94
63115;BME280;49208;50.874;6.466;2023-05-17T17:19:01;101436.94;;;14.36;44.50
63115;BME280;49208;50.874;6.466;2023-05-17T17:21:27;101437.78;;;14.37;45.85
63115;BME280;49208;50.874;6.466;2023-05-17T17:23:55;101438.47;;;14.17;43.54
63115;BME280;49208;50.874;6.466;2023-05-17T17:26:20;101437.50;;;14.19;44.59
63115;BME280;49208;50.874;6.466;2023-05-17T17:28:46;101441.56;;;14.04;44.33
63115;BME280;49208;50.874;6.466;2023-05-17T17:31:12;101446.88;;;14.06;45.64
63115;BME280;49208;50.874;6.466;2023-05-17T17:33:37;101448.09;;;13.97;45.29
63115;BME280;49208;50.874;6.466;2023-05-17T17:36:02;101448.09;;;13.97;46.43
63115;BME280;49208;50.874;6.466;2023-05-17T17:38:28;101441.91;;;13.95;45.74
63115;BME280;49208;50.874;6.466;2023-05-17T17:40:53;101448.16;;;13.94;45.87
63115;BME280;49208;50.874;6.466;2023-05-17T17:43:19;101443.00;;;13.88;46.21
63115;BME280;49208;50.874;6.466;2023-05-17T17:45:44;101444.13;;;13.82;46.15
63115;BME280;49208;50.874;6.466;2023-05-17T17:48:11;101442.34;;;13.81;47.13
63115;BME280;49208;50.874;6.466;2023-05-17T17:50:36;101447.75;;;13.80;47.05
63115;BME280;49208;50.874;6.466;2023-05-17T17:53:01;101440.00;;;13.72;46.75
63115;BME280;49208;50.874;6.466;2023-05-17T17:55:27;101442.75;;;13.69;47.04
63115;BME280;49208;50.874;6.466;2023-05-17T17:57:52;101441.25;;;13.60;46.58
63115;BME280;49208;50.874;6.466;2023-05-17T18:00:18;101442.31;;;13.54;47.31
63115;BME280;49208;50.874;6.466;2023-05-17T18:02:43;101436.28;;;13.48;48.12
63115;BME280;49208;50.874;6.466;2023-05-17T18:05:09;101443.59;;;13.43;48.49
63115;BME280;49208;50.874;6.466;2023-05-17T18:07:35;101444.81;;;13.32;49.06
63115;BME280;49208;50.874;6.466;2023-05-17T18:10:01;101437.78;;;13.28;49.16
63115;BME280;49208;50.874;6.466;2023-05-17T18:12:27;101448.56;;;13.25;50.34
63115;BME280;49208;50.874;6.466;2023-05-17T18:14:53;101450.53;;;13.19;50.10
63115;BME280;49208;50.874;6.466;2023-05-17T18:17:18;101447.94;;;13.15;50.50
63115;BME280;49208;50.874;6.466;2023-05-17T18:19:44;101450.88;;;13.08;50.45
63115;BME280;49208;50.874;6.466;2023-05-17T18:22:10;101456.28;;;13.05;51.16
63115;BME280;49208;50.874;6.466;2023-05-17T18:24:35;101448.44;;;12.99;51.51
63115;BME280;49208;50.874;6.466;2023-05-17T18:27:01;101453.97;;;12.92;51.06
63115;BME280;49208;50.874;6.466;2023-05-17T18:29:26;101447.94;;;12.86;51.97
63115;BME280;49208;50.874;6.466;2023-05-17T18:31:51;101455.25;;;12.79;51.69
63115;BME280;49208;50.874;6.466;2023-05-17T18:34:17;101450.09;;;12.73;51.94
63115;BME280;49208;50.874;6.466;2023-05-17T18:36:42;101445.88;;;12.66;51.84
63115;BME280;49208;50.874;6.466;2023-05-17T18:39:08;101456.75;;;12.58;51.71
63115;BME280;49208;50.874;6.466;2023-05-17T18:41:33;101453.41;;;12.50;51.75
63115;BME280;49208;50.874;6.466;2023-05-17T18:43:59;101454.53;;;12.41;51.62
63115;BME280;49208;50.874;6.466;2023-05-17T18:46:28;101451.06;;;12.38;52.71
63115;BME280;49208;50.874;6.466;2023-05-17T18:48:54;101452.19;;;12.29;52.91
63115;BME280;49208;50.874;6.466;2023-05-17T18:51:19;101455.06;;;12.21;53.07